North Henderson, Illinois
Current Conditions -  °F | °C
As of 9:55 PM on Saturday 25 Oct 2014 (Local Time) from KGBG Reporting Station
Clear Clear  
Wind Chill: 51°   Ceiling: Unl
Heat Index: 51°   Visibility: 10mi
Dew Point: 38°   Wind: 5mph
Humidity: 62%   Direction: 310°NW
Pressure: 30.04"   Gusts: NA
Location:  41.09°N, 90.48°W
Report Text: KGBG 260255Z AUTO 31004KT 10SM CLR 10/04 A3004 RMK AO2 T01040035
Loading
Personal Weather Stations






























Interactive Weather Map
Tropical Storm Tracking
New forecast layout! Learn more

10-Day Weather Forecast

Advertisements
Track Severe Weather on mobile